sensor_id;sensor_type;location;lat;lon;timestamp;P1;durP1;ratioP1;P2;durP2;ratioP2
31514;SDS011;40526;52.088;17.020;2023-04-03T00:00:42;5.18;;;2.67;;
31514;SDS011;40526;52.088;17.020;2023-04-03T00:05:46;7.20;;;2.60;;
31514;SDS011;40526;52.088;17.020;2023-04-03T00:10:48;8.80;;;2.40;;
31514;SDS011;40526;52.088;17.020;2023-04-03T00:15:51;5.50;;;2.65;;
31514;SDS011;40526;52.088;17.020;2023-04-03T00:20:55;7.20;;;2.67;;
31514;SDS011;40526;52.088;17.020;2023-04-03T00:25:58;4.50;;;2.28;;
31514;SDS011;40526;52.088;17.020;2023-04-03T00:31:00;5.15;;;2.22;;
31514;SDS011;40526;52.088;17.020;2023-04-03T00:36:08;8.40;;;2.92;;
31514;SDS011;40526;52.088;17.020;2023-04-03T00:41:11;8.95;;;2.58;;
31514;SDS011;40526;52.088;17.020;2023-04-03T00:46:14;7.15;;;2.30;;
31514;SDS011;40526;52.088;17.020;2023-04-03T00:51:19;10.93;;;2.47;;
31514;SDS011;40526;52.088;17.020;2023-04-03T00:56:25;9.27;;;2.75;;
31514;SDS011;40526;52.088;17.020;2023-04-03T01:01:30;6.53;;;2.50;;
31514;SDS011;40526;52.088;17.020;2023-04-03T01:06:35;10.00;;;2.33;;
31514;SDS011;40526;52.088;17.020;2023-04-03T01:11:41;5.45;;;2.33;;
31514;SDS011;40526;52.088;17.020;2023-04-03T01:16:50;4.75;;;2.20;;
31514;SDS011;40526;52.088;17.020;2023-04-03T01:21:58;2.90;;;1.85;;
31514;SDS011;40526;52.088;17.020;2023-04-03T01:27:05;9.65;;;2.50;;
31514;SDS011;40526;52.088;17.020;2023-04-03T01:32:11;13.05;;;3.80;;
31514;SDS011;40526;52.088;17.020;2023-04-03T01:37:15;10.15;;;2.90;;
31514;SDS011;40526;52.088;17.020;2023-04-03T01:42:18;5.80;;;2.78;;
31514;SDS011;40526;52.088;17.020;2023-04-03T01:47:22;4.97;;;1.85;;
31514;SDS011;40526;52.088;17.020;2023-04-03T01:52:25;7.13;;;2.80;;
31514;SDS011;40526;52.088;17.020;2023-04-03T01:57:27;7.82;;;2.75;;
31514;SDS011;40526;52.088;17.020;2023-04-03T02:02:31;6.75;;;2.40;;
31514;SDS011;40526;52.088;17.020;2023-04-03T02:07:34;4.03;;;2.50;;
31514;SDS011;40526;52.088;17.020;2023-04-03T02:12:36;7.22;;;2.20;;
31514;SDS011;40526;52.088;17.020;2023-04-03T02:17:40;4.68;;;2.75;;
31514;SDS011;40526;52.088;17.020;2023-04-03T02:22:43;11.00;;;2.47;;
31514;SDS011;40526;52.088;17.020;2023-04-03T02:27:45;5.70;;;2.40;;
31514;SDS011;40526;52.088;17.020;2023-04-03T02:32:50;5.22;;;2.08;;
31514;SDS011;40526;52.088;17.020;2023-04-03T02:37:52;8.52;;;2.15;;
31514;SDS011;40526;52.088;17.020;2023-04-03T02:42:57;8.13;;;2.50;;
31514;SDS011;40526;52.088;17.020;2023-04-03T02:48:01;6.90;;;2.03;;
31514;SDS011;40526;52.088;17.020;2023-04-03T02:53:03;5.57;;;1.80;;
31514;SDS011;40526;52.088;17.020;2023-04-03T02:58:06;4.70;;;2.20;;
31514;SDS011;40526;52.088;17.020;2023-04-03T03:03:10;10.82;;;2.92;;
31514;SDS011;40526;52.088;17.020;2023-04-03T03:08:13;12.75;;;3.10;;
31514;SDS011;40526;52.088;17.020;2023-04-03T03:13:16;5.55;;;1.95;;
31514;SDS011;40526;52.088;17.020;2023-04-03T03:18:20;16.92;;;5.90;;
31514;SDS011;40526;52.088;17.020;2023-04-03T03:23:23;10.60;;;5.45;;
31514;SDS011;40526;52.088;17.020;2023-04-03T03:28:26;14.18;;;5.82;;
31514;SDS011;40526;52.088;17.020;2023-04-03T03:33:30;11.18;;;4.55;;
31514;SDS011;40526;52.088;17.020;2023-04-03T03:38:33;11.27;;;4.88;;
31514;SDS011;40526;52.088;17.020;2023-04-03T03:43:36;9.35;;;3.05;;
31514;SDS011;40526;52.088;17.020;2023-04-03T03:48:42;7.88;;;2.80;;
31514;SDS011;40526;52.088;17.020;2023-04-03T03:53:45;3.95;;;2.08;;
31514;SDS011;40526;52.088;17.020;2023-04-03T03:58:50;6.07;;;2.60;;
31514;SDS011;40526;52.088;17.020;2023-04-03T04:03:54;11.05;;;3.25;;
31514;SDS011;40526;52.088;17.020;2023-04-03T04:09:01;7.63;;;2.78;;
31514;SDS011;40526;52.088;17.020;2023-04-03T04:14:04;5.97;;;2.35;;
31514;SDS011;40526;52.088;17.020;2023-04-03T04:19:09;7.90;;;3.40;;
31514;SDS011;40526;52.088;17.020;2023-04-03T04:24:13;7.50;;;2.88;;
31514;SDS011;40526;52.088;17.020;2023-04-03T04:29:16;5.18;;;2.63;;
31514;SDS011;40526;52.088;17.020;2023-04-03T04:34:23;6.97;;;2.53;;
31514;SDS011;40526;52.088;17.020;2023-04-03T04:39:26;8.68;;;2.95;;
31514;SDS011;40526;52.088;17.020;2023-04-03T04:44:31;7.82;;;2.60;;
31514;SDS011;40526;52.088;17.020;2023-04-03T04:49:35;9.75;;;3.00;;
31514;SDS011;40526;52.088;17.020;2023-04-03T04:54:38;4.10;;;3.03;;
31514;SDS011;40526;52.088;17.020;2023-04-03T04:59:41;10.23;;;4.70;;
31514;SDS011;40526;52.088;17.020;2023-04-03T05:04:45;12.25;;;3.78;;
31514;SDS011;40526;52.088;17.020;2023-04-03T05:09:53;12.52;;;4.97;;
31514;SDS011;40526;52.088;17.020;2023-04-03T05:14:56;13.35;;;5.35;;
31514;SDS011;40526;52.088;17.020;2023-04-03T05:20:03;15.77;;;7.18;;
31514;SDS011;40526;52.088;17.020;2023-04-03T05:25:06;18.13;;;6.22;;
31514;SDS011;40526;52.088;17.020;2023-04-03T05:30:10;11.73;;;4.07;;
31514;SDS011;40526;52.088;17.020;2023-04-03T05:35:16;9.43;;;5.47;;
31514;SDS011;40526;52.088;17.020;2023-04-03T05:40:21;8.20;;;4.00;;
31514;SDS011;40526;52.088;17.020;2023-04-03T05:45:27;6.93;;;3.53;;
31514;SDS011;40526;52.088;17.020;2023-04-03T05:50:33;15.80;;;6.63;;
31514;SDS011;40526;52.088;17.020;2023-04-03T05:55:36;12.43;;;5.70;;
31514;SDS011;40526;52.088;17.020;2023-04-03T06:00:38;9.98;;;3.17;;
31514;SDS011;40526;52.088;17.020;2023-04-03T06:05:43;8.27;;;3.22;;
31514;SDS011;40526;52.088;17.020;2023-04-03T06:10:46;11.88;;;6.20;;
31514;SDS011;40526;52.088;17.020;2023-04-03T06:15:48;9.10;;;3.33;;
31514;SDS011;40526;52.088;17.020;2023-04-03T06:20:52;10.02;;;4.05;;
31514;SDS011;40526;52.088;17.020;2023-04-03T06:25:55;12.05;;;3.10;;
31514;SDS011;40526;52.088;17.020;2023-04-03T06:30:57;8.48;;;2.80;;
31514;SDS011;40526;52.088;17.020;2023-04-03T06:36:03;2.72;;;2.08;;
31514;SDS011;40526;52.088;17.020;2023-04-03T06:41:06;8.57;;;3.03;;
31514;SDS011;40526;52.088;17.020;2023-04-03T06:46:12;4.50;;;2.17;;
31514;SDS011;40526;52.088;17.020;2023-04-03T06:51:21;6.70;;;1.80;;
31514;SDS011;40526;52.088;17.020;2023-04-03T06:56:25;4.10;;;2.58;;
31514;SDS011;40526;52.088;17.020;2023-04-03T07:01:28;10.55;;;4.20;;
31514;SDS011;40526;52.088;17.020;2023-04-03T07:06:33;7.38;;;3.97;;
31514;SDS011;40526;52.088;17.020;2023-04-03T07:11:36;19.50;;;3.97;;
31514;SDS011;40526;52.088;17.020;2023-04-03T07:16:38;7.80;;;3.20;;
31514;SDS011;40526;52.088;17.020;2023-04-03T07:21:42;8.95;;;3.03;;
31514;SDS011;40526;52.088;17.020;2023-04-03T07:26:44;4.55;;;1.92;;
31514;SDS011;40526;52.088;17.020;2023-04-03T07:31:52;6.05;;;2.40;;
31514;SDS011;40526;52.088;17.020;2023-04-03T07:36:56;5.47;;;2.38;;
31514;SDS011;40526;52.088;17.020;2023-04-03T07:41:59;5.75;;;3.13;;
31514;SDS011;40526;52.088;17.020;2023-04-03T07:47:02;10.10;;;3.65;;
31514;SDS011;40526;52.088;17.020;2023-04-03T07:52:05;6.50;;;2.20;;
31514;SDS011;40526;52.088;17.020;2023-04-03T07:57:09;5.30;;;1.90;;
31514;SDS011;40526;52.088;17.020;2023-04-03T08:02:12;2.67;;;1.85;;
31514;SDS011;40526;52.088;17.020;2023-04-03T08:07:16;5.95;;;2.03;;
31514;SDS011;40526;52.088;17.020;2023-04-03T08:12:18;13.60;;;4.82;;
31514;SDS011;40526;52.088;17.020;2023-04-03T08:17:21;11.82;;;5.93;;
31514;SDS011;40526;52.088;17.020;2023-04-03T08:22:25;3.00;;;2.10;;
31514;SDS011;40526;52.088;17.020;2023-04-03T08:27:27;7.47;;;3.92;;
31514;SDS011;40526;52.088;17.020;2023-04-03T08:32:29;4.75;;;2.15;;
31514;SDS011;40526;52.088;17.020;2023-04-03T08:37:34;9.50;;;4.10;;
31514;SDS011;40526;52.088;17.020;2023-04-03T08:42:40;7.57;;;4.22;;
31514;SDS011;40526;52.088;17.020;2023-04-03T08:47:45;14.98;;;3.40;;
31514;SDS011;40526;52.088;17.020;2023-04-03T08:52:53;9.75;;;4.53;;
31514;SDS011;40526;52.088;17.020;2023-04-03T08:57:59;3.08;;;1.83;;
31514;SDS011;40526;52.088;17.020;2023-04-03T09:03:03;6.38;;;2.20;;
31514;SDS011;40526;52.088;17.020;2023-04-03T09:08:11;5.78;;;2.53;;
31514;SDS011;40526;52.088;17.020;2023-04-03T09:13:22;4.95;;;1.85;;
31514;SDS011;40526;52.088;17.020;2023-04-03T09:18:28;9.98;;;3.05;;
31514;SDS011;40526;52.088;17.020;2023-04-03T09:23:36;6.60;;;2.85;;
31514;SDS011;40526;52.088;17.020;2023-04-03T09:28:46;6.47;;;3.58;;
31514;SDS011;40526;52.088;17.020;2023-04-03T09:33:48;7.47;;;3.63;;
31514;SDS011;40526;52.088;17.020;2023-04-03T09:39:03;11.48;;;3.40;;
31514;SDS011;40526;52.088;17.020;2023-04-03T09:44:17;9.93;;;4.80;;
31514;SDS011;40526;52.088;17.020;2023-04-03T09:49:23;6.03;;;2.58;;
31514;SDS011;40526;52.088;17.020;2023-04-03T09:54:30;17.98;;;5.45;;
31514;SDS011;40526;52.088;17.020;2023-04-03T09:59:33;6.00;;;3.08;;
31514;SDS011;40526;52.088;17.020;2023-04-03T10:04:40;7.60;;;2.80;;
31514;SDS011;40526;52.088;17.020;2023-04-03T10:09:44;14.75;;;6.22;;
31514;SDS011;40526;52.088;17.020;2023-04-03T10:14:57;8.90;;;4.00;;
31514;SDS011;40526;52.088;17.020;2023-04-03T10:20:02;7.28;;;2.55;;
31514;SDS011;40526;52.088;17.020;2023-04-03T10:25:20;5.57;;;3.58;;
31514;SDS011;40526;52.088;17.020;2023-04-03T10:30:35;6.88;;;3.10;;
31514;SDS011;40526;52.088;17.020;2023-04-03T10:35:42;5.28;;;2.78;;
31514;SDS011;40526;52.088;17.020;2023-04-03T10:40:52;6.00;;;2.35;;
31514;SDS011;40526;52.088;17.020;2023-04-03T10:45:59;7.05;;;4.90;;
31514;SDS011;40526;52.088;17.020;2023-04-03T10:51:10;10.93;;;4.90;;
31514;SDS011;40526;52.088;17.020;2023-04-03T10:56:27;6.45;;;3.03;;
31514;SDS011;40526;52.088;17.020;2023-04-03T11:01:33;4.20;;;2.95;;
31514;SDS011;40526;52.088;17.020;2023-04-03T11:06:38;4.35;;;2.85;;
31514;SDS011;40526;52.088;17.020;2023-04-03T11:11:47;12.48;;;5.93;;
31514;SDS011;40526;52.088;17.020;2023-04-03T11:16:53;7.78;;;3.30;;
31514;SDS011;40526;52.088;17.020;2023-04-03T11:22:05;7.10;;;3.58;;
31514;SDS011;40526;52.088;17.020;2023-04-03T11:27:15;6.40;;;2.80;;
31514;SDS011;40526;52.088;17.020;2023-04-03T11:32:27;8.95;;;3.33;;
31514;SDS011;40526;52.088;17.020;2023-04-03T11:37:40;7.32;;;2.60;;
31514;SDS011;40526;52.088;17.020;2023-04-03T11:42:48;3.60;;;2.20;;
31514;SDS011;40526;52.088;17.020;2023-04-03T11:47:51;8.70;;;2.95;;
31514;SDS011;40526;52.088;17.020;2023-04-03T11:52:58;10.93;;;5.43;;
31514;SDS011;40526;52.088;17.020;2023-04-03T11:58:04;12.13;;;5.85;;
31514;SDS011;40526;52.088;17.020;2023-04-03T12:08:58;4.28;;;2.42;;
31514;SDS011;40526;52.088;17.020;2023-04-03T12:14:05;6.80;;;3.00;;
31514;SDS011;40526;52.088;17.020;2023-04-03T12:19:35;6.00;;;2.55;;
31514;SDS011;40526;52.088;17.020;2023-04-03T12:24:41;6.18;;;2.08;;
31514;SDS011;40526;52.088;17.020;2023-04-03T12:29:46;8.63;;;4.65;;
31514;SDS011;40526;52.088;17.020;2023-04-03T12:34:53;7.95;;;4.25;;
31514;SDS011;40526;52.088;17.020;2023-04-03T12:40:08;4.53;;;2.22;;
31514;SDS011;40526;52.088;17.020;2023-04-03T12:45:16;9.27;;;4.45;;
31514;SDS011;40526;52.088;17.020;2023-04-03T12:50:22;12.55;;;5.03;;
31514;SDS011;40526;52.088;17.020;2023-04-03T12:55:26;4.78;;;2.45;;
31514;SDS011;40526;52.088;17.020;2023-04-03T13:00:31;6.18;;;2.88;;
31514;SDS011;40526;52.088;17.020;2023-04-03T13:05:35;6.05;;;3.08;;
31514;SDS011;40526;52.088;17.020;2023-04-03T13:10:43;5.38;;;2.15;;
31514;SDS011;40526;52.088;17.020;2023-04-03T13:15:55;3.97;;;2.40;;
31514;SDS011;40526;52.088;17.020;2023-04-03T13:20:59;8.95;;;3.15;;
31514;SDS011;40526;52.088;17.020;2023-04-03T13:26:04;4.43;;;2.42;;
31514;SDS011;40526;52.088;17.020;2023-04-03T13:31:16;10.20;;;4.35;;
31514;SDS011;40526;52.088;17.020;2023-04-03T13:36:20;13.88;;;4.80;;
31514;SDS011;40526;52.088;17.020;2023-04-03T13:41:25;6.20;;;3.33;;
31514;SDS011;40526;52.088;17.020;2023-04-03T13:46:31;3.97;;;2.70;;
31514;SDS011;40526;52.088;17.020;2023-04-03T13:51:34;13.75;;;4.75;;
31514;SDS011;40526;52.088;17.020;2023-04-03T13:56:40;15.25;;;5.10;;
31514;SDS011;40526;52.088;17.020;2023-04-03T14:01:45;6.00;;;2.50;;
31514;SDS011;40526;52.088;17.020;2023-04-03T14:06:48;13.85;;;4.65;;
31514;SDS011;40526;52.088;17.020;2023-04-03T14:11:52;6.30;;;3.53;;
31514;SDS011;40526;52.088;17.020;2023-04-03T14:17:00;3.65;;;2.28;;
31514;SDS011;40526;52.088;17.020;2023-04-03T14:22:06;5.90;;;2.50;;
31514;SDS011;40526;52.088;17.020;2023-04-03T14:27:11;4.53;;;2.70;;
31514;SDS011;40526;52.088;17.020;2023-04-03T14:32:19;13.07;;;4.03;;
31514;SDS011;40526;52.088;17.020;2023-04-03T14:37:23;5.20;;;2.50;;
31514;SDS011;40526;52.088;17.020;2023-04-03T14:42:27;8.77;;;3.78;;
31514;SDS011;40526;52.088;17.020;2023-04-03T14:47:32;5.00;;;3.00;;
31514;SDS011;40526;52.088;17.020;2023-04-03T14:52:35;9.77;;;2.83;;
31514;SDS011;40526;52.088;17.020;2023-04-03T14:57:37;3.22;;;2.53;;
31514;SDS011;40526;52.088;17.020;2023-04-03T15:02:42;3.80;;;2.83;;
31514;SDS011;40526;52.088;17.020;2023-04-03T15:07:47;9.27;;;2.90;;
31514;SDS011;40526;52.088;17.020;2023-04-03T15:12:51;1.95;;;1.67;;
31514;SDS011;40526;52.088;17.020;2023-04-03T15:17:55;8.38;;;4.13;;
31514;SDS011;40526;52.088;17.020;2023-04-03T15:22:58;7.25;;;4.20;;
31514;SDS011;40526;52.088;17.020;2023-04-03T15:28:01;5.10;;;2.78;;
31514;SDS011;40526;52.088;17.020;2023-04-03T15:33:05;8.73;;;5.10;;
31514;SDS011;40526;52.088;17.020;2023-04-03T15:38:08;4.35;;;2.65;;
31514;SDS011;40526;52.088;17.020;2023-04-03T15:43:10;3.53;;;1.90;;
31514;SDS011;40526;52.088;17.020;2023-04-03T15:48:14;3.95;;;2.40;;
31514;SDS011;40526;52.088;17.020;2023-04-03T15:53:17;3.78;;;2.35;;
31514;SDS011;40526;52.088;17.020;2023-04-03T15:58:19;4.00;;;2.63;;
31514;SDS011;40526;52.088;17.020;2023-04-03T16:03:23;3.50;;;2.45;;
31514;SDS011;40526;52.088;17.020;2023-04-03T16:08:26;5.45;;;3.22;;
31514;SDS011;40526;52.088;17.020;2023-04-03T16:13:29;5.78;;;2.38;;
31514;SDS011;40526;52.088;17.020;2023-04-03T16:18:33;9.05;;;4.78;;
31514;SDS011;40526;52.088;17.020;2023-04-03T16:23:36;4.43;;;2.60;;
31514;SDS011;40526;52.088;17.020;2023-04-03T16:28:38;14.82;;;5.97;;
31514;SDS011;40526;52.088;17.020;2023-04-03T16:33:42;10.98;;;5.00;;
31514;SDS011;40526;52.088;17.020;2023-04-03T16:38:45;7.28;;;3.95;;
31514;SDS011;40526;52.088;17.020;2023-04-03T16:43:47;5.25;;;2.72;;
31514;SDS011;40526;52.088;17.020;2023-04-03T16:48:51;16.23;;;8.57;;
31514;SDS011;40526;52.088;17.020;2023-04-03T16:53:54;9.60;;;4.70;;
31514;SDS011;40526;52.088;17.020;2023-04-03T16:58:56;9.68;;;3.40;;
31514;SDS011;40526;52.088;17.020;2023-04-03T17:04:00;11.65;;;4.05;;
31514;SDS011;40526;52.088;17.020;2023-04-03T17:09:02;27.65;;;9.05;;
31514;SDS011;40526;52.088;17.020;2023-04-03T17:14:05;22.10;;;9.10;;
31514;SDS011;40526;52.088;17.020;2023-04-03T17:19:09;15.77;;;7.22;;
31514;SDS011;40526;52.088;17.020;2023-04-03T17:24:12;13.73;;;7.82;;
31514;SDS011;40526;52.088;17.020;2023-04-03T17:29:15;8.93;;;5.45;;
31514;SDS011;40526;52.088;17.020;2023-04-03T17:34:19;7.50;;;4.53;;
31514;SDS011;40526;52.088;17.020;2023-04-03T17:39:21;14.57;;;6.35;;
31514;SDS011;40526;52.088;17.020;2023-04-03T17:44:23;24.58;;;11.00;;
31514;SDS011;40526;52.088;17.020;2023-04-03T17:49:28;36.67;;;13.82;;
31514;SDS011;40526;52.088;17.020;2023-04-03T17:54:30;31.25;;;14.43;;
31514;SDS011;40526;52.088;17.020;2023-04-03T17:59:33;23.83;;;10.75;;
31514;SDS011;40526;52.088;17.020;2023-04-03T18:04:37;33.30;;;13.70;;
31514;SDS011;40526;52.088;17.020;2023-04-03T18:09:39;29.65;;;13.35;;
31514;SDS011;40526;52.088;17.020;2023-04-03T18:14:42;20.48;;;9.55;;
31514;SDS011;40526;52.088;17.020;2023-04-03T18:19:46;11.23;;;6.80;;
31514;SDS011;40526;52.088;17.020;2023-04-03T18:24:51;13.75;;;6.75;;
31514;SDS011;40526;52.088;17.020;2023-04-03T18:29:54;15.23;;;6.55;;
31514;SDS011;40526;52.088;17.020;2023-04-03T18:34:59;8.88;;;4.72;;
31514;SDS011;40526;52.088;17.020;2023-04-03T18:40:02;12.00;;;6.30;;
31514;SDS011;40526;52.088;17.020;2023-04-03T18:45:05;11.70;;;6.38;;
31514;SDS011;40526;52.088;17.020;2023-04-03T18:50:10;7.47;;;5.05;;
31514;SDS011;40526;52.088;17.020;2023-04-03T18:55:13;7.50;;;3.88;;
31514;SDS011;40526;52.088;17.020;2023-04-03T19:00:18;7.05;;;3.08;;
31514;SDS011;40526;52.088;17.020;2023-04-03T19:05:22;11.95;;;5.00;;
31514;SDS011;40526;52.088;17.020;2023-04-03T19:10:26;10.35;;;4.63;;
31514;SDS011;40526;52.088;17.020;2023-04-03T19:15:28;15.35;;;7.03;;
31514;SDS011;40526;52.088;17.020;2023-04-03T19:20:32;10.57;;;5.45;;
31514;SDS011;40526;52.088;17.020;2023-04-03T19:25:35;11.45;;;5.00;;
31514;SDS011;40526;52.088;17.020;2023-04-03T19:30:38;5.78;;;3.40;;
31514;SDS011;40526;52.088;17.020;2023-04-03T19:35:42;8.30;;;4.05;;
31514;SDS011;40526;52.088;17.020;2023-04-03T19:40:44;6.18;;;3.50;;
31514;SDS011;40526;52.088;17.020;2023-04-03T19:45:47;10.73;;;4.78;;
31514;SDS011;40526;52.088;17.020;2023-04-03T19:50:51;8.98;;;3.45;;
31514;SDS011;40526;52.088;17.020;2023-04-03T19:55:53;8.98;;;3.50;;
31514;SDS011;40526;52.088;17.020;2023-04-03T20:00:56;13.23;;;5.60;;
31514;SDS011;40526;52.088;17.020;2023-04-03T20:06:00;12.75;;;6.40;;
31514;SDS011;40526;52.088;17.020;2023-04-03T20:11:03;14.35;;;7.07;;
31514;SDS011;40526;52.088;17.020;2023-04-03T20:16:06;10.40;;;5.70;;
31514;SDS011;40526;52.088;17.020;2023-04-03T20:21:10;7.97;;;4.07;;
31514;SDS011;40526;52.088;17.020;2023-04-03T20:26:17;12.80;;;4.80;;
31514;SDS011;40526;52.088;17.020;2023-04-03T20:31:23;7.55;;;4.55;;
31514;SDS011;40526;52.088;17.020;2023-04-03T20:36:28;9.95;;;5.10;;
31514;SDS011;40526;52.088;17.020;2023-04-03T20:41:32;14.68;;;6.70;;
31514;SDS011;40526;52.088;17.020;2023-04-03T20:46:36;6.88;;;4.63;;
31514;SDS011;40526;52.088;17.020;2023-04-03T20:51:40;7.35;;;3.70;;
31514;SDS011;40526;52.088;17.020;2023-04-03T20:56:43;8.60;;;3.92;;
31514;SDS011;40526;52.088;17.020;2023-04-03T21:01:48;12.77;;;4.75;;
31514;SDS011;40526;52.088;17.020;2023-04-03T21:23:24;10.27;;;4.97;;
31514;SDS011;40526;52.088;17.020;2023-04-03T21:28:27;8.63;;;4.40;;
31514;SDS011;40526;52.088;17.020;2023-04-03T21:33:32;20.58;;;9.05;;
31514;SDS011;40526;52.088;17.020;2023-04-03T21:38:35;19.35;;;7.05;;
31514;SDS011;40526;52.088;17.020;2023-04-03T21:43:39;21.77;;;5.50;;
31514;SDS011;40526;52.088;17.020;2023-04-03T21:48:43;14.13;;;5.78;;
31514;SDS011;40526;52.088;17.020;2023-04-03T21:53:49;26.40;;;8.85;;
31514;SDS011;40526;52.088;17.020;2023-04-03T21:58:53;15.40;;;6.88;;
31514;SDS011;40526;52.088;17.020;2023-04-03T22:03:57;29.40;;;11.63;;
31514;SDS011;40526;52.088;17.020;2023-04-03T22:09:00;20.10;;;8.48;;
31514;SDS011;40526;52.088;17.020;2023-04-03T22:14:03;23.80;;;8.85;;
31514;SDS011;40526;52.088;17.020;2023-04-03T22:19:07;19.25;;;8.02;;
31514;SDS011;40526;52.088;17.020;2023-04-03T22:24:09;11.20;;;5.35;;
31514;SDS011;40526;52.088;17.020;2023-04-03T22:29:12;7.93;;;4.18;;
31514;SDS011;40526;52.088;17.020;2023-04-03T22:34:16;8.48;;;5.13;;
31514;SDS011;40526;52.088;17.020;2023-04-03T22:39:19;8.68;;;5.25;;
31514;SDS011;40526;52.088;17.020;2023-04-03T22:44:22;14.18;;;5.25;;
31514;SDS011;40526;52.088;17.020;2023-04-03T22:49:26;10.48;;;6.15;;
31514;SDS011;40526;52.088;17.020;2023-04-03T22:54:28;13.43;;;6.47;;
31514;SDS011;40526;52.088;17.020;2023-04-03T22:59:30;15.38;;;7.20;;
31514;SDS011;40526;52.088;17.020;2023-04-03T23:04:34;13.57;;;6.13;;
31514;SDS011;40526;52.088;17.020;2023-04-03T23:09:37;14.10;;;5.80;;
31514;SDS011;40526;52.088;17.020;2023-04-03T23:14:39;10.13;;;5.25;;
31514;SDS011;40526;52.088;17.020;2023-04-03T23:19:43;15.23;;;6.00;;
31514;SDS011;40526;52.088;17.020;2023-04-03T23:24:46;15.13;;;5.80;;
31514;SDS011;40526;52.088;17.020;2023-04-03T23:29:48;13.20;;;4.88;;
31514;SDS011;40526;52.088;17.020;2023-04-03T23:34:52;16.33;;;6.00;;
31514;SDS011;40526;52.088;17.020;2023-04-03T23:39:54;11.68;;;5.40;;
31514;SDS011;40526;52.088;17.020;2023-04-03T23:44:57;12.68;;;5.00;;
31514;SDS011;40526;52.088;17.020;2023-04-03T23:50:01;9.68;;;5.50;;
31514;SDS011;40526;52.088;17.020;2023-04-03T23:55:03;12.57;;;5.53;;
